createdAt,value
2023-01-06T00:01:36.396Z,1.20
2023-01-06T00:04:04.913Z,1.00
2023-01-06T00:06:32.742Z,1.40
2023-01-06T00:09:02.808Z,0.90
2023-01-06T00:11:30.980Z,1.30
2023-01-06T00:14:00.001Z,0.80
2023-01-06T00:16:28.237Z,1.20
2023-01-06T00:18:57.353Z,1.10
2023-01-06T00:21:25.394Z,1.10
2023-01-06T00:23:53.373Z,1.20
2023-01-06T00:26:21.977Z,1.20
2023-01-06T00:28:53.872Z,1.20
2023-01-06T00:31:22.358Z,1.10
2023-01-06T00:33:50.104Z,1.00
2023-01-06T00:36:18.219Z,1.10
2023-01-06T00:38:46.092Z,0.90
2023-01-06T00:41:33.663Z,1.10
2023-01-06T00:44:02.304Z,1.20
2023-01-06T00:46:31.529Z,1.50
2023-01-06T00:49:05.779Z,1.20
2023-01-06T00:51:38.949Z,1.40
2023-01-06T00:54:08.720Z,1.20
2023-01-06T00:56:38.876Z,1.20
2023-01-06T00:59:10.013Z,1.10
2023-01-06T01:02:04.113Z,1.00
2023-01-06T01:04:32.393Z,1.50
2023-01-06T01:07:01.483Z,1.10
2023-01-06T01:09:31.299Z,1.30
2023-01-06T01:12:12.828Z,1.30
2023-01-06T01:14:46.511Z,1.60
2023-01-06T01:17:19.423Z,1.40
2023-01-06T01:19:49.463Z,1.20
2023-01-06T01:22:18.526Z,1.30
2023-01-06T01:24:46.385Z,1.80
2023-01-06T01:27:14.533Z,1.60
2023-01-06T01:29:43.030Z,1.10
2023-01-06T01:32:10.951Z,1.60
2023-01-06T01:34:39.790Z,1.40
2023-01-06T01:37:07.548Z,2.10
2023-01-06T01:39:35.353Z,1.20
2023-01-06T01:42:03.722Z,1.20
2023-01-06T01:45:04.914Z,1.30
2023-01-06T01:47:56.059Z,1.90
2023-01-06T01:50:36.102Z,1.30
2023-01-06T01:53:10.757Z,1.50
2023-01-06T01:55:39.264Z,1.60
2023-01-06T01:58:25.350Z,1.20
2023-01-06T02:00:53.410Z,1.20
2023-01-06T02:03:23.197Z,1.80
2023-01-06T02:05:55.818Z,1.20
2023-01-06T02:08:32.850Z,1.70
2023-01-06T02:11:01.438Z,1.10
2023-01-06T02:13:30.138Z,1.60
2023-01-06T02:16:25.440Z,1.40
2023-01-06T02:19:12.221Z,1.50
2023-01-06T02:21:56.197Z,2.30
2023-01-06T02:24:44.302Z,2.40
2023-01-06T02:27:32.706Z,1.80
2023-01-06T02:30:34.437Z,2.10
2023-01-06T02:33:14.282Z,2.20
2023-01-06T02:35:44.947Z,1.80
2023-01-06T02:38:34.207Z,2.40
2023-01-06T02:41:12.421Z,1.80
2023-01-06T02:44:01.300Z,2.00
2023-01-06T02:47:06.499Z,1.90
2023-01-06T02:49:47.918Z,2.00
2023-01-06T02:52:42.811Z,2.30
2023-01-06T02:55:35.279Z,1.90
2023-01-06T02:58:15.493Z,2.10
2023-01-06T03:00:51.106Z,2.20
2023-01-06T03:03:22.916Z,2.40
2023-01-06T03:05:58.121Z,3.20
2023-01-06T03:08:28.878Z,1.90
2023-01-06T03:10:58.494Z,1.60
2023-01-06T03:13:45.140Z,1.70
2023-01-06T03:16:14.423Z,2.00
2023-01-06T03:18:44.392Z,1.50
2023-01-06T03:21:20.356Z,1.50
2023-01-06T03:23:48.220Z,1.50
2023-01-06T03:26:16.504Z,1.90
2023-01-06T03:28:45.765Z,1.60
2023-01-06T03:31:29.799Z,1.60
2023-01-06T04:05:55.291Z,1.80
2023-01-06T04:08:24.441Z,2.10
2023-01-06T04:10:53.283Z,2.00
2023-01-06T04:13:22.514Z,1.60
2023-01-06T04:15:50.314Z,1.90
2023-01-06T04:18:18.679Z,1.70
2023-01-06T04:20:50.356Z,1.60
2023-01-06T04:23:27.865Z,2.00
2023-01-06T04:25:56.345Z,1.80
2023-01-06T04:28:31.932Z,1.70
2023-01-06T04:31:05.565Z,2.30
2023-01-06T04:33:35.750Z,2.10
2023-01-06T04:36:06.651Z,1.40
2023-01-06T04:38:35.582Z,1.60
2023-01-06T04:41:03.846Z,1.80
2023-01-06T04:43:32.283Z,1.60
2023-01-06T04:46:00.197Z,1.80
2023-01-06T04:48:27.972Z,2.00
2023-01-06T04:51:06.641Z,2.00
2023-01-06T04:53:39.223Z,1.60
2023-01-06T04:56:10.433Z,1.80
2023-01-06T04:58:39.093Z,2.00
2023-01-06T05:01:10.577Z,1.80
2023-01-06T05:03:39.876Z,1.50
2023-01-06T05:06:10.147Z,1.70
2023-01-06T05:08:39.628Z,3.00
2023-01-06T05:13:36.977Z,2.00
2023-01-06T05:16:10.090Z,2.40
2023-01-06T05:18:38.353Z,2.30
2023-01-06T05:21:06.217Z,2.10
2023-01-06T05:23:37.045Z,2.00
2023-01-06T05:26:05.664Z,2.00
2023-01-06T05:28:33.564Z,2.50
2023-01-06T05:31:03.787Z,2.20
2023-01-06T05:33:32.835Z,2.60
2023-01-06T05:36:02.156Z,2.30
2023-01-06T05:38:30.092Z,2.50
2023-01-06T05:40:57.868Z,2.80
2023-01-06T05:43:26.712Z,2.90
2023-01-06T05:45:55.606Z,2.80
2023-01-06T05:48:27.789Z,2.80
2023-01-06T05:51:07.613Z,2.50
2023-01-06T05:53:37.660Z,1.80
2023-01-06T05:56:07.481Z,2.60
2023-01-06T05:58:36.810Z,2.60
2023-01-06T06:01:04.955Z,3.40
2023-01-06T06:03:33.436Z,3.10
2023-01-06T06:06:06.101Z,3.60
2023-01-06T06:08:34.153Z,2.90
2023-01-06T06:11:07.338Z,3.80
2023-01-06T06:13:36.142Z,3.80
2023-01-06T06:16:12.431Z,3.50
2023-01-06T06:18:44.868Z,3.70
2023-01-06T06:21:15.647Z,3.30
2023-01-06T06:23:43.516Z,3.70
2023-01-06T06:26:12.267Z,3.40
2023-01-06T06:28:40.657Z,3.50
2023-01-06T06:31:15.048Z,3.20
2023-01-06T06:33:42.817Z,3.00
2023-01-06T06:36:15.555Z,3.20
2023-01-06T06:38:47.845Z,3.10
2023-01-06T06:41:16.328Z,3.00
2023-01-06T06:43:44.803Z,3.20
2023-01-06T06:46:12.693Z,3.10
2023-01-06T06:48:40.631Z,3.20
2023-01-06T06:51:10.982Z,3.00
2023-01-06T06:53:39.714Z,2.90
2023-01-06T06:56:08.312Z,3.00
2023-01-06T06:58:37.266Z,2.90
2023-01-06T07:01:09.911Z,2.80
2023-01-06T07:03:38.635Z,2.60
2023-01-06T07:06:08.915Z,2.50
2023-01-06T07:08:37.100Z,3.00
2023-01-06T07:11:05.336Z,2.90
2023-01-06T07:13:33.015Z,2.50
2023-01-06T07:16:01.022Z,2.80
2023-01-06T07:18:29.007Z,3.00
2023-01-06T07:20:57.327Z,2.80
2023-01-06T07:23:25.506Z,3.10
2023-01-06T07:25:54.640Z,2.60
2023-01-06T07:28:22.960Z,3.00
2023-01-06T07:30:51.691Z,2.80
2023-01-06T07:33:20.184Z,2.60
2023-01-06T07:35:51.934Z,2.90
2023-01-06T07:38:19.848Z,2.90
2023-01-06T07:40:49.134Z,2.80
2023-01-06T07:43:19.805Z,2.50
2023-01-06T07:45:48.771Z,3.00
2023-01-06T07:48:17.070Z,2.50
2023-01-06T07:50:46.301Z,2.90
2023-01-06T07:53:14.085Z,3.00
2023-01-06T07:55:41.929Z,2.50
2023-01-06T07:58:10.206Z,2.50
2023-01-06T08:00:38.417Z,3.10
2023-01-06T08:03:07.251Z,2.80
2023-01-06T08:05:41.570Z,3.20
2023-01-06T08:08:10.878Z,3.10
2023-01-06T08:10:42.901Z,3.50
2023-01-06T08:13:10.940Z,3.10
2023-01-06T08:15:39.463Z,3.20
2023-01-06T08:18:08.340Z,2.70
2023-01-06T08:20:36.994Z,3.00
2023-01-06T08:23:04.898Z,2.70
2023-01-06T08:25:32.736Z,2.80
2023-01-06T08:28:01.474Z,2.60
2023-01-06T08:30:29.254Z,3.00
2023-01-06T08:32:58.375Z,2.50
2023-01-06T08:35:27.047Z,2.00
2023-01-06T08:37:54.938Z,1.70
2023-01-06T08:40:23.247Z,2.30
2023-01-06T08:42:51.672Z,2.90
2023-01-06T08:45:19.470Z,2.10
2023-01-06T08:47:47.423Z,2.40
2023-01-06T08:50:15.346Z,2.00
2023-01-06T08:52:43.062Z,2.30
2023-01-06T08:55:11.087Z,2.60
2023-01-06T08:57:40.225Z,2.30
2023-01-06T09:00:08.600Z,2.80
2023-01-06T09:02:36.563Z,2.40
2023-01-06T09:05:05.351Z,2.30
2023-01-06T09:07:33.068Z,2.30
2023-01-06T09:10:01.007Z,2.70
2023-01-06T09:12:28.766Z,3.00
2023-01-06T09:14:56.490Z,2.10
2023-01-06T09:17:25.652Z,2.60
2023-01-06T09:19:53.566Z,2.80
2023-01-06T09:22:21.311Z,2.70
2023-01-06T09:24:49.922Z,2.00
2023-01-06T09:27:17.993Z,3.00
2023-01-06T09:29:45.889Z,2.80
2023-01-06T09:32:13.860Z,3.00
2023-01-06T09:34:41.692Z,3.70
2023-01-06T09:37:09.533Z,3.40
2023-01-06T09:39:38.801Z,3.50
2023-01-06T09:42:24.537Z,3.20
2023-01-06T09:45:16.611Z,3.70
2023-01-06T09:47:50.238Z,4.10
2023-01-06T09:50:28.314Z,3.40
2023-01-06T09:53:17.121Z,4.60
2023-01-06T09:55:52.183Z,3.80
2023-01-06T09:58:28.914Z,3.40
2023-01-06T10:01:00.538Z,3.30
2023-01-06T10:03:28.555Z,3.60
2023-01-06T10:06:01.873Z,2.80
2023-01-06T10:08:38.784Z,2.80
2023-01-06T10:11:15.664Z,3.40
2023-01-06T10:14:10.869Z,2.90
2023-01-06T10:17:10.159Z,2.80
2023-01-06T10:22:34.120Z,2.80
2023-01-06T10:25:22.009Z,2.80
2023-01-06T10:27:49.676Z,3.10
2023-01-06T10:30:30.560Z,3.10
2023-01-06T10:33:00.550Z,3.30
2023-01-06T10:35:28.473Z,2.90
2023-01-06T10:37:58.795Z,3.90
2023-01-06T10:40:30.014Z,3.50
2023-01-06T10:43:08.682Z,3.20
2023-01-06T10:45:41.255Z,3.40
2023-01-06T10:48:15.680Z,2.80
2023-01-06T10:50:43.967Z,2.70
2023-01-06T10:53:13.435Z,2.80
2023-01-06T10:56:01.879Z,3.20
2023-01-06T10:58:40.891Z,3.70
2023-01-06T11:01:18.257Z,3.60
2023-01-06T11:03:47.245Z,3.10
2023-01-06T11:06:39.025Z,3.00
2023-01-06T11:09:09.271Z,3.20
2023-01-06T11:11:47.853Z,2.80
2023-01-06T11:14:21.017Z,3.10
2023-01-06T11:16:58.908Z,3.10
2023-01-06T11:19:45.803Z,3.60
2023-01-06T11:22:34.466Z,4.20
2023-01-06T11:25:03.954Z,3.90
2023-01-06T11:27:31.910Z,3.60
2023-01-06T11:30:21.421Z,3.90
2023-01-06T11:32:49.200Z,5.30
2023-01-06T11:35:21.410Z,4.70
2023-01-06T11:37:49.275Z,3.90
2023-01-06T11:40:25.203Z,3.70
2023-01-06T11:42:56.396Z,4.30
2023-01-06T11:45:41.582Z,3.80
2023-01-06T11:48:22.408Z,3.90
2023-01-06T11:51:01.172Z,4.80
2023-01-06T11:53:30.145Z,4.20
2023-01-06T11:56:04.606Z,4.50
2023-01-06T11:58:57.297Z,4.30
2023-01-06T12:01:28.282Z,4.40
2023-01-06T12:04:07.325Z,4.20
2023-01-06T12:06:40.658Z,5.30
2023-01-06T12:09:44.583Z,4.50
2023-01-06T12:12:21.801Z,4.40
2023-01-06T12:14:49.625Z,4.40
2023-01-06T12:17:35.389Z,4.10
2023-01-06T12:20:08.177Z,4.20
2023-01-06T12:22:42.953Z,4.70
2023-01-06T12:25:42.772Z,4.70
2023-01-06T12:28:28.098Z,4.70
2023-01-06T12:31:34.980Z,5.30
2023-01-06T12:34:24.989Z,5.10
2023-01-06T12:37:04.004Z,6.00
2023-01-06T12:39:50.738Z,6.70
2023-01-06T12:42:26.726Z,6.20
2023-01-06T12:45:04.377Z,6.60
2023-01-06T12:47:50.417Z,6.60
2023-01-06T12:50:34.343Z,5.90
2023-01-06T12:53:20.624Z,7.20
2023-01-06T12:56:21.583Z,6.20
2023-01-06T12:59:08.755Z,6.90
2023-01-06T13:01:45.559Z,6.40
2023-01-06T13:04:32.830Z,6.70
2023-01-06T13:07:19.564Z,6.20
2023-01-06T13:10:02.337Z,6.60
2023-01-06T13:12:36.382Z,8.20
2023-01-06T13:15:22.450Z,8.50
2023-01-06T13:18:05.910Z,7.90
2023-01-06T13:20:44.832Z,7.90
2023-01-06T13:23:43.604Z,8.20
2023-01-06T13:26:36.020Z,7.30
2023-01-06T13:29:14.848Z,6.70
2023-01-06T13:32:14.428Z,7.30
2023-01-06T13:34:45.138Z,7.20
2023-01-06T13:37:28.199Z,7.80
2023-01-06T13:40:01.110Z,7.90
2023-01-06T13:42:31.817Z,9.40
2023-01-06T13:44:59.913Z,7.80
2023-01-06T13:47:28.096Z,6.40
2023-01-06T13:49:58.929Z,8.40
2023-01-06T13:52:30.673Z,8.20
2023-01-06T13:55:01.824Z,7.70
2023-01-06T13:57:39.111Z,6.80
2023-01-06T14:00:06.889Z,7.10
2023-01-06T14:02:40.694Z,7.10
2023-01-06T14:05:21.212Z,7.80
2023-01-06T14:07:57.217Z,7.50
2023-01-06T14:10:43.960Z,7.50
2023-01-06T14:13:21.956Z,7.40
2023-01-06T14:16:01.319Z,7.40
2023-01-06T14:18:32.285Z,7.00
2023-01-06T14:21:05.063Z,8.30
2023-01-06T14:23:34.361Z,7.80
2023-01-06T14:26:03.390Z,7.50
2023-01-06T14:28:34.816Z,7.60
2023-01-06T14:31:27.305Z,9.40
2023-01-06T14:34:00.319Z,7.60
2023-01-06T14:36:32.958Z,8.60
2023-01-06T14:39:17.216Z,8.00
2023-01-06T14:42:02.495Z,8.30
2023-01-06T14:44:44.537Z,10.30
2023-01-06T14:47:20.265Z,9.90
2023-01-06T14:49:58.664Z,10.60
2023-01-06T14:52:38.889Z,9.40
2023-01-06T14:55:12.569Z,9.20
2023-01-06T14:57:40.320Z,8.80
2023-01-06T15:00:10.989Z,8.90
2023-01-06T15:02:45.681Z,8.70
2023-01-06T15:05:19.732Z,9.70
2023-01-06T15:08:15.341Z,9.70
2023-01-06T15:10:44.354Z,9.30
2023-01-06T15:13:27.898Z,8.80
2023-01-06T15:16:32.699Z,9.30
2023-01-06T15:19:01.476Z,9.30
2023-01-06T15:21:29.335Z,13.90
2023-01-06T15:23:57.435Z,9.70
2023-01-06T15:26:29.809Z,9.80
2023-01-06T15:29:03.066Z,8.80
2023-01-06T15:31:37.327Z,9.80
2023-01-06T15:34:08.983Z,9.10
2023-01-06T15:36:39.941Z,9.10
2023-01-06T15:39:13.546Z,9.80
2023-01-06T15:41:41.895Z,10.80
2023-01-06T15:44:26.535Z,9.30
2023-01-06T15:47:02.511Z,9.50
2023-01-06T15:49:34.380Z,9.90
2023-01-06T15:52:07.123Z,9.70
2023-01-06T15:54:38.087Z,8.10
2023-01-06T15:57:16.677Z,8.00
2023-01-06T15:59:59.349Z,8.20
2023-01-06T16:02:30.861Z,8.30
2023-01-06T16:05:00.691Z,8.10
2023-01-06T16:07:43.342Z,8.00
2023-01-06T16:10:38.414Z,8.10
2023-01-06T16:13:18.673Z,7.40
2023-01-06T16:15:50.960Z,6.70
2023-01-06T16:18:27.436Z,6.30
2023-01-06T16:20:56.713Z,5.80
2023-01-06T16:23:29.575Z,6.30
2023-01-06T16:26:31.336Z,6.40
2023-01-06T16:29:02.516Z,6.90
2023-01-06T16:31:38.469Z,6.10
2023-01-06T16:34:21.589Z,6.90
2023-01-06T16:36:49.887Z,6.40
2023-01-06T16:39:18.190Z,6.60
2023-01-06T16:42:00.922Z,6.10
2023-01-06T16:44:30.451Z,6.30
2023-01-06T16:47:00.366Z,6.50
2023-01-06T16:49:31.501Z,6.40
2023-01-06T16:51:59.457Z,7.30
2023-01-06T16:54:27.155Z,7.50
2023-01-06T16:56:55.144Z,7.50
2023-01-06T16:59:22.921Z,7.50
2023-01-06T17:01:50.728Z,7.00
2023-01-06T17:04:18.885Z,7.20
2023-01-06T17:06:46.708Z,7.20
2023-01-06T17:09:20.536Z,6.40
2023-01-06T17:11:49.435Z,5.90
2023-01-06T17:14:20.326Z,6.40
2023-01-06T17:16:49.166Z,6.70
2023-01-06T17:19:27.648Z,6.70
2023-01-06T17:22:02.085Z,6.00
2023-01-06T17:24:30.760Z,4.10
2023-01-06T17:27:05.976Z,3.80
2023-01-06T17:29:36.126Z,4.00
2023-01-06T17:32:14.673Z,5.50
2023-01-06T17:34:44.181Z,4.30
2023-01-06T17:37:15.433Z,4.00
2023-01-06T17:39:45.064Z,4.00
2023-01-06T17:42:12.789Z,3.90
2023-01-06T17:44:45.579Z,3.00
2023-01-06T17:47:16.281Z,3.70
2023-01-06T17:49:48.288Z,3.60
2023-01-06T17:52:19.260Z,3.60
2023-01-06T17:55:12.307Z,3.40
2023-01-06T17:57:42.388Z,4.20
2023-01-06T18:00:33.806Z,4.90
2023-01-06T18:03:06.787Z,5.30
2023-01-06T18:05:35.027Z,5.00
2023-01-06T18:08:05.480Z,4.40
2023-01-06T18:10:57.375Z,4.50
2023-01-06T18:13:32.487Z,3.90
2023-01-06T18:16:04.029Z,3.70
2023-01-06T18:18:40.464Z,3.70
2023-01-06T18:21:14.774Z,3.50
2023-01-06T18:23:47.791Z,3.50
2023-01-06T18:26:27.741Z,3.10
2023-01-06T18:28:59.493Z,3.30
2023-01-06T18:31:34.680Z,3.50
2023-01-06T18:34:19.757Z,3.00
2023-01-06T18:36:49.676Z,3.30
2023-01-06T18:39:31.083Z,3.50
2023-01-06T18:42:22.859Z,3.10
2023-01-06T18:45:18.236Z,3.50
2023-01-06T18:48:18.161Z,3.20
2023-01-06T18:50:48.647Z,4.10
2023-01-06T18:53:27.439Z,4.20
2023-01-06T18:56:01.773Z,4.60
2023-01-06T18:58:41.306Z,4.00
2023-01-06T19:01:20.280Z,4.40
2023-01-06T19:04:19.367Z,4.50
2023-01-06T19:06:51.298Z,3.40
2023-01-06T19:09:42.511Z,3.70
2023-01-06T19:12:22.265Z,4.00
2023-01-06T19:14:52.758Z,3.70
2023-01-06T19:17:39.955Z,4.00
2023-01-06T19:20:17.749Z,3.30
2023-01-06T19:22:46.007Z,3.00
2023-01-06T19:25:33.453Z,2.50
2023-01-06T19:28:15.595Z,2.70
2023-01-06T19:31:04.521Z,2.70
2023-01-06T19:33:38.489Z,2.50
2023-01-06T19:36:06.223Z,2.50
2023-01-06T19:38:40.991Z,2.70
2023-01-06T19:41:18.197Z,3.00
2023-01-06T19:43:47.198Z,2.70
2023-01-06T19:46:23.052Z,2.50
2023-01-06T19:48:51.079Z,2.70
2023-01-06T19:51:30.278Z,2.80
2023-01-06T19:54:02.226Z,3.10
2023-01-06T19:56:35.359Z,2.80
2023-01-06T19:59:10.074Z,2.60
2023-01-06T20:01:38.496Z,3.00
2023-01-06T20:04:18.921Z,3.50
2023-01-06T20:06:46.972Z,2.70
2023-01-06T20:09:14.884Z,2.80
2023-01-06T20:11:42.691Z,2.50
2023-01-06T20:14:10.777Z,2.60
2023-01-06T20:16:38.580Z,3.40
2023-01-06T20:19:06.303Z,4.70
2023-01-06T20:21:34.424Z,3.70
2023-01-06T20:24:02.097Z,4.70
2023-01-06T20:26:29.843Z,3.20
2023-01-06T20:28:57.734Z,3.20
2023-01-06T20:31:25.552Z,2.80
2023-01-06T20:33:53.293Z,2.60
2023-01-06T20:36:20.992Z,2.50
2023-01-06T20:38:49.195Z,2.60
2023-01-06T20:41:17.537Z,2.40
2023-01-06T20:43:45.518Z,2.50
2023-01-06T20:46:14.623Z,2.60
2023-01-06T20:48:42.448Z,2.60
2023-01-06T20:51:10.371Z,2.30
2023-01-06T20:53:38.064Z,2.50
2023-01-06T20:56:05.984Z,2.50
2023-01-06T20:58:33.883Z,2.50
2023-01-06T21:01:01.724Z,2.40
2023-01-06T21:03:29.493Z,3.00
2023-01-06T21:05:57.268Z,2.90
2023-01-06T21:08:24.962Z,2.50
2023-01-06T21:10:52.696Z,2.80
2023-01-06T21:13:24.017Z,2.60
2023-01-06T21:15:51.922Z,2.20
2023-01-06T21:18:19.618Z,2.80
2023-01-06T21:20:49.463Z,2.70
2023-01-06T21:23:17.171Z,2.40
2023-01-06T21:25:45.005Z,2.20
2023-01-06T21:28:12.992Z,2.20
2023-01-06T21:30:40.724Z,2.50
2023-01-06T21:33:08.437Z,2.60
2023-01-06T21:35:36.237Z,2.50
2023-01-06T21:38:05.339Z,2.70
2023-01-06T21:43:09.756Z,2.50
2023-01-06T21:45:39.295Z,2.90
2023-01-06T21:48:10.353Z,2.80
2023-01-06T21:53:09.341Z,2.40
2023-01-06T21:55:38.008Z,2.10
2023-01-06T21:58:05.837Z,2.50
2023-01-06T22:00:33.529Z,2.30
2023-01-06T22:03:01.576Z,2.70
2023-01-06T22:05:29.497Z,2.30
2023-01-06T22:07:57.343Z,2.30
2023-01-06T22:10:26.606Z,2.60
2023-01-06T22:12:57.202Z,2.70
2023-01-06T22:15:25.790Z,3.10
2023-01-06T22:17:56.702Z,2.90
2023-01-06T22:20:26.717Z,4.30
2023-01-06T22:22:54.893Z,4.10
2023-01-06T22:25:22.553Z,3.70
2023-01-06T22:27:50.423Z,3.00
2023-01-06T22:30:18.706Z,3.10
2023-01-06T22:32:48.626Z,2.60
2023-01-06T22:35:17.593Z,3.10
2023-01-06T22:37:46.522Z,3.60
2023-01-06T22:40:15.060Z,3.60
2023-01-06T22:42:44.056Z,3.80
2023-01-06T22:45:12.836Z,3.50
2023-01-06T22:47:40.852Z,3.20
2023-01-06T22:50:09.159Z,2.80
2023-01-06T22:52:37.334Z,2.80
2023-01-06T22:55:05.470Z,2.90
2023-01-06T22:57:33.229Z,2.90
2023-01-06T23:00:01.543Z,2.80
2023-01-06T23:02:29.849Z,3.00
2023-01-06T23:04:57.800Z,3.10
2023-01-06T23:07:25.828Z,3.50
2023-01-06T23:09:53.802Z,8.30
2023-01-06T23:12:21.708Z,10.40
2023-01-06T23:14:50.699Z,12.80
2023-01-06T23:17:18.434Z,13.90
2023-01-06T23:19:46.149Z,13.70
2023-01-06T23:22:14.588Z,14.30
2023-01-06T23:24:42.665Z,9.40
2023-01-06T23:27:12.160Z,4.80
2023-01-06T23:29:39.869Z,3.70
2023-01-06T23:32:07.545Z,3.50
2023-01-06T23:34:35.203Z,3.70
2023-01-06T23:37:03.667Z,3.80
2023-01-06T23:39:31.440Z,3.80
2023-01-06T23:42:00.008Z,3.10
2023-01-06T23:44:28.047Z,2.90
2023-01-06T23:46:57.567Z,3.50
2023-01-06T23:49:25.517Z,3.10
2023-01-06T23:51:53.487Z,3.10
2023-01-06T23:54:21.742Z,3.30
2023-01-06T23:56:49.516Z,3.30
2023-01-06T23:59:17.493Z,3.80
